Aviation Digital Data Service (ADDS)

Output produced by METARs form (1502 UTC 16 January 2018)
found at http://aviationweather.gov/adds/metars/
 
KLBX 161126Z 1612/1712 35015G25KT P6SM -RA BKN008 OVC015 
     FM161600 36017G27KT 5SM -FZRAPL BR BKN007 OVC015 
     FM162000 36015G25KT 6SM -SNPL BKN009 OVC015 
     FM162300 36014G24KT 6SM -SN BR BKN009 OVC015 
     FM170200 36010G20KT P6SM BKN040 
     FM170800 36008KT P6SM SCT250